Time;durP1;ratioP1;P1;durP2;ratioP2;P2;SDS_P1;SDS_P2;PMS_P1;PMS_P2;Temp;Humidity;BMP_temperature;BMP_pressure;BME280_temperature;BME280_humidity;BME280_pressure;Samples;Min_cycle;Max_cycle;Signal;HPM_P1;HPM_P2
2022/08/14 00:00:23;;;;;;;0.20;0.20;;;;;;;25.15;49.90;101443.56;1973623;29;20590;-64
2022/08/14 00:01:25;;;;;;;0.20;0.20;;;;;;;25.14;50.24;101446.78;1975860;30;20060;-64
2022/08/14 00:02:30;;;;;;;0.20;0.20;;;;;;;25.15;49.85;101434.53;1979823;29;20438;-64
2022/08/14 00:03:34;;;;;;;0.17;0.17;;;;;;;25.11;49.95;101439.34;1973618;30;20063;-65
2022/08/14 00:04:36;;;;;;;0.20;0.20;;;;;;;25.12;50.13;101446.44;1972010;30;20134;-64
2022/08/14 00:05:44;;;;;;;0.20;0.20;;;;;;;25.05;50.22;101439.81;1981844;29;20058;-64
2022/08/14 00:06:47;;;;;;;0.20;0.20;;;;;;;25.02;50.93;101437.91;1975877;29;20059;-64
2022/08/14 00:07:51;;;;;;;0.20;0.20;;;;;;;25.03;50.36;101438.69;1971979;30;20078;-64
2022/08/14 00:08:56;;;;;;;0.20;0.20;;;;;;;24.98;50.54;101448.25;1974415;30;20063;-65
2022/08/14 00:10:01;;;;;;;0.20;0.20;;;;;;;24.96;50.96;101447.91;1975972;29;20058;-64
2022/08/14 00:11:23;;;;;;;0.20;0.20;;;;;;;24.87;50.92;101442.16;1972597;30;20063;-65
2022/08/14 00:12:27;;;;;;;0.20;0.20;;;;;;;24.93;51.12;101445.19;1983362;29;20062;-64
2022/08/14 00:13:38;;;;;;;0.20;0.20;;;;;;;24.89;51.39;101439.72;1979079;30;20059;-64
2022/08/14 00:14:43;;;;;;;0.20;0.20;;;;;;;24.87;51.44;101436.63;1978995;30;20059;-64
2022/08/14 00:15:48;;;;;;;0.20;0.20;;;;;;;24.86;51.20;101431.53;1977496;30;20074;-64
2022/08/14 00:16:51;;;;;;;0.20;0.20;;;;;;;24.83;51.83;101424.09;1973619;30;20060;-64
2022/08/14 00:17:57;;;;;;;0.20;0.20;;;;;;;24.78;51.23;101428.09;1972993;30;20094;-64
2022/08/14 00:19:00;;;;;;;0.20;0.20;;;;;;;24.76;51.82;101430.53;1978631;29;20086;-64
2022/08/14 00:20:23;;;;;;;0.30;0.30;;;;;;;24.69;51.93;101430.66;1973415;30;20524;-64
2022/08/14 00:21:37;;;;;;;0.20;0.20;;;;;;;24.63;52.11;101429.53;1973191;30;20060;-64
2022/08/14 00:22:40;;;;;;;0.20;0.20;;;;;;;24.64;51.82;101425.56;1979229;29;20061;-65
2022/08/14 00:24:03;;;;;;;0.38;0.38;;;;;;;24.56;52.18;101424.13;1977635;29;20405;-64
2022/08/14 00:25:06;;;;;;;0.20;0.20;;;;;;;24.52;52.62;101433.69;1976838;30;20112;-64
2022/08/14 00:26:09;;;;;;;0.20;0.20;;;;;;;24.47;52.73;101423.91;1975752;30;20623;-64
2022/08/14 00:27:25;;;;;;;0.20;0.20;;;;;;;24.39;53.14;101416.94;1972610;30;20503;-64
2022/08/14 00:28:37;;;;;;;0.20;0.20;;;;;;;24.40;52.93;101424.06;1971915;30;20055;-64
2022/08/14 00:29:40;;;;;;;0.20;0.20;;;;;;;24.39;52.92;101421.69;1957978;30;20068;-64
2022/08/14 00:30:47;;;;;;;0.20;0.20;;;;;;;24.43;52.93;101417.69;1969903;30;20074;-64
2022/08/14 00:31:49;;;;;;;0.20;0.20;;;;;;;24.40;53.25;101415.78;1973267;30;20063;-64
2022/08/14 00:32:58;;;;;;;0.22;0.22;;;;;;;24.40;53.37;101418.53;1975540;29;20102;-64
2022/08/14 00:34:01;;;;;;;0.22;0.22;;;;;;;24.40;53.48;101407.50;1973414;29;20059;-64
2022/08/14 00:35:24;;;;;;;0.30;0.30;;;;;;;24.35;53.45;101413.47;1973188;30;20126;-65
2022/08/14 00:36:47;;;;;;;0.30;0.30;;;;;;;24.31;53.15;101412.75;1977808;30;20206;-64
2022/08/14 00:37:50;;;;;;;0.20;0.20;;;;;;;24.30;53.54;101405.69;1974844;29;20059;-63
2022/08/14 00:38:54;;;;;;;0.30;0.30;;;;;;;24.29;53.33;101412.38;1979303;30;20416;-63
2022/08/14 00:39:56;;;;;;;0.30;0.30;;;;;;;24.26;53.45;101404.19;1977987;29;20060;-64
2022/08/14 00:41:05;;;;;;;0.28;0.28;;;;;;;24.25;53.52;101411.66;1976490;29;20059;-64
2022/08/14 00:42:11;;;;;;;0.30;0.30;;;;;;;24.23;53.84;101405.03;1969203;30;20063;-64
2022/08/14 00:43:36;;;;;;;0.30;0.30;;;;;;;24.19;53.54;101405.06;1967688;30;20105;-64
2022/08/14 00:44:42;;;;;;;0.25;0.25;;;;;;;24.17;53.98;101401.94;1975405;30;20062;-64
2022/08/14 00:45:47;;;;;;;0.30;0.30;;;;;;;24.18;53.70;101403.50;1974632;30;20063;-65
2022/08/14 00:46:53;;;;;;;0.30;0.30;;;;;;;24.12;53.97;101405.19;1980032;29;20066;-64
2022/08/14 00:48:01;;;;;;;0.30;0.30;;;;;;;24.14;54.08;101400.03;1975576;30;20170;-64
2022/08/14 00:49:03;;;;;;;0.28;0.28;;;;;;;24.18;53.80;101402.75;1975508;30;20501;-64
2022/08/14 00:50:09;;;;;;;0.20;0.20;;;;;;;24.21;53.65;101399.13;1974644;29;20055;-64
2022/08/14 00:51:21;;;;;;;0.30;0.30;;;;;;;24.20;53.85;101397.56;1972721;30;20056;-64
2022/08/14 00:52:24;;;;;;;0.30;0.30;;;;;;;24.22;53.97;101395.97;1972757;30;20066;-64
2022/08/14 00:53:28;;;;;;;0.30;0.30;;;;;;;24.22;53.89;101393.19;1978414;30;20059;-64
2022/08/14 00:54:32;;;;;;;0.30;0.30;;;;;;;24.22;53.95;101395.16;1975539;29;20060;-64
2022/08/14 00:55:40;;;;;;;0.30;0.30;;;;;;;24.17;54.05;101396.44;1971109;30;20158;-64
2022/08/14 00:56:44;;;;;;;0.30;0.30;;;;;;;24.05;54.48;101401.75;1972606;30;20064;-64
2022/08/14 00:58:29;;;;;;;0.30;0.30;;;;;;;24.01;54.54;101407.31;1975165;29;20115;-64
2022/08/14 00:59:11;;;;;;;0.30;0.30;;;;;;;23.92;54.80;101401.53;1974163;30;20108;-65
2022/08/14 01:00:18;;;;;;;0.30;0.30;;;;;;;23.88;55.20;101403.56;1972662;30;20059;-64
2022/08/14 01:01:43;;;;;;;0.30;0.30;;;;;;;23.79;55.30;101395.03;1979233;29;20088;-64
2022/08/14 01:02:45;;;;;;;0.30;0.30;;;;;;;23.72;55.52;101386.88;1966042;30;20075;-64
2022/08/14 01:03:59;;;;;;;0.20;0.20;;;;;;;23.70;55.62;101397.53;1966065;30;20064;-64
2022/08/14 01:05:07;;;;;;;0.20;0.20;;;;;;;23.69;55.90;101395.19;1978396;29;20093;-64
2022/08/14 01:06:15;;;;;;;0.20;0.20;;;;;;;23.63;55.90;101390.16;1974188;30;20059;-64
2022/08/14 01:07:21;;;;;;;0.30;0.30;;;;;;;23.58;56.29;101393.34;1979037;30;20062;-64
2022/08/14 01:08:26;;;;;;;0.30;0.30;;;;;;;23.55;56.02;101385.94;1978494;29;20093;-64
2022/08/14 01:09:50;;;;;;;0.20;0.20;;;;;;;23.49;56.12;101382.06;1975379;29;20322;-64
2022/08/14 01:10:54;;;;;;;0.30;0.30;;;;;;;23.50;56.54;101386.38;1977832;30;20055;-64
2022/08/14 01:11:58;;;;;;;0.30;0.30;;;;;;;23.51;56.80;101384.41;1972749;29;20068;-64
2022/08/14 01:13:06;;;;;;;0.30;0.30;;;;;;;23.54;56.33;101384.38;1973289;29;20067;-64
2022/08/14 01:14:12;;;;;;;0.30;0.30;;;;;;;23.51;56.46;101390.72;1974833;30;20063;-64
2022/08/14 01:15:29;;;;;;;0.20;0.20;;;;;;;23.45;57.10;101386.09;1975385;29;20055;-64
2022/08/14 01:16:54;;;;;;;0.30;0.30;;;;;;;23.40;57.09;101376.28;1973063;29;20091;-65
2022/08/14 01:22:06;;;;;;;0.30;0.30;;;;;;;23.41;56.81;101374.31;1974488;30;20051;-65
2022/08/14 01:23:14;;;;;;;0.20;0.20;;;;;;;23.40;57.25;101370.00;1973375;29;20129;-64
2022/08/14 01:24:21;;;;;;;0.30;0.30;;;;;;;23.44;57.36;101373.47;1975418;29;20530;-63
2022/08/14 01:25:32;;;;;;;0.30;0.30;;;;;;;23.43;57.08;101371.94;1972778;30;20052;-64
2022/08/14 01:26:37;;;;;;;0.30;0.30;;;;;;;23.40;57.60;101370.75;1979442;29;20070;-64
2022/08/14 01:27:43;;;;;;;0.30;0.30;;;;;;;23.38;57.62;101372.38;1974119;30;20060;-63
2022/08/14 01:28:59;;;;;;;0.30;0.30;;;;;;;23.35;57.84;101373.22;1970388;29;20108;-64
2022/08/14 01:30:02;;;;;;;0.30;0.30;;;;;;;23.35;57.42;101368.50;1973112;29;20124;-64
2022/08/14 01:31:09;;;;;;;0.30;0.30;;;;;;;23.39;57.66;101371.19;1977001;30;20060;-63
2022/08/14 01:32:11;;;;;;;0.30;0.30;;;;;;;23.42;57.32;101371.13;1976529;30;20067;-64
2022/08/14 01:33:17;;;;;;;0.30;0.30;;;;;;;23.44;57.24;101367.97;1981859;29;20134;-64
2022/08/14 01:34:22;;;;;;;0.20;0.20;;;;;;;23.44;57.04;101376.22;1972836;30;20071;-64
2022/08/14 01:35:45;;;;;;;0.20;0.20;;;;;;;23.40;57.48;101368.00;1972410;30;20059;-64
2022/08/14 01:37:09;;;;;;;0.30;0.30;;;;;;;23.44;57.13;101365.22;1973528;29;20066;-64
2022/08/14 01:38:14;;;;;;;0.30;0.30;;;;;;;23.46;57.42;101371.09;1973268;30;20056;-64
2022/08/14 01:39:19;;;;;;;0.30;0.30;;;;;;;23.52;56.82;101369.44;1979799;29;20087;-63
2022/08/14 01:40:22;;;;;;;0.20;0.20;;;;;;;23.53;56.99;101365.50;1977600;29;20584;-64
2022/08/14 01:41:36;;;;;;;0.22;0.22;;;;;;;23.50;56.89;101369.06;1983511;29;20067;-63
2022/08/14 01:42:41;;;;;;;0.30;0.30;;;;;;;23.45;57.13;101358.53;1981802;29;20129;-64
2022/08/14 01:43:50;;;;;;;0.20;0.20;;;;;;;23.50;56.89;101360.78;1972467;30;20060;-63
2022/08/14 01:44:58;;;;;;;0.20;0.20;;;;;;;23.46;56.89;101362.81;1977710;30;20067;-63
2022/08/14 01:46:00;;;;;;;0.20;0.20;;;;;;;23.47;57.06;101361.63;1972896;29;20060;-63
2022/08/14 01:47:12;;;;;;;0.20;0.20;;;;;;;23.41;57.27;101355.00;1972876;30;20070;-64
2022/08/14 01:48:24;;;;;;;0.30;0.30;;;;;;;23.42;57.30;101353.84;1977661;29;20168;-63
2022/08/14 01:49:30;;;;;;;0.28;0.28;;;;;;;23.42;57.35;101351.09;1973237;29;20094;-63
2022/08/14 01:50:36;;;;;;;0.20;0.20;;;;;;;23.38;57.56;101348.38;1975521;30;20170;-64
2022/08/14 01:51:40;;;;;;;0.20;0.20;;;;;;;23.35;57.61;101342.91;1986478;29;20070;-63
2022/08/14 01:52:46;;;;;;;0.30;0.30;;;;;;;23.38;57.31;101351.13;1980967;29;20500;-63
2022/08/14 01:54:06;;;;;;;0.30;0.30;;;;;;;23.37;57.14;101351.53;1979628;29;20059;-64
2022/08/14 01:55:11;;;;;;;0.30;0.30;;;;;;;23.34;57.65;101346.88;1978753;29;20074;-64
2022/08/14 01:56:17;;;;;;;0.20;0.20;;;;;;;23.34;57.76;101349.63;1975649;29;20156;-64
2022/08/14 01:57:20;;;;;;;0.20;0.20;;;;;;;23.33;57.63;101350.78;1977972;29;20063;-65
2022/08/14 01:58:24;;;;;;;0.30;0.30;;;;;;;23.35;57.35;101346.44;1977709;30;20107;-64
2022/08/14 01:59:33;;;;;;;0.30;0.30;;;;;;;23.32;57.61;101343.72;1982984;29;20081;-64
2022/08/14 02:00:40;;;;;;;0.30;0.30;;;;;;;23.29;57.68;101345.31;1974621;29;20095;-64
2022/08/14 02:01:43;;;;;;;0.30;0.30;;;;;;;23.30;57.67;101343.38;1974029;30;20134;-65
2022/08/14 02:03:00;;;;;;;0.30;0.30;;;;;;;23.22;57.87;101333.59;1974651;30;20440;-65
2022/08/14 02:04:05;;;;;;;0.20;0.20;;;;;;;23.24;57.77;101337.50;1971831;30;20059;-65
2022/08/14 02:05:28;;;;;;;0.20;0.20;;;;;;;23.20;58.13;101335.97;1974240;30;20060;-65
2022/08/14 02:06:36;;;;;;;0.28;0.28;;;;;;;23.23;58.08;101343.44;1972793;29;20062;-65
2022/08/14 02:07:42;;;;;;;0.30;0.30;;;;;;;23.28;57.55;101343.00;1978707;30;20090;-66
2022/08/14 02:08:57;;;;;;;0.30;0.30;;;;;;;23.24;57.51;101342.25;1971512;30;20466;-65
2022/08/14 02:09:59;;;;;;;0.28;0.28;;;;;;;23.24;57.58;101336.72;1966744;30;20052;-65
2022/08/14 02:11:21;;;;;;;0.22;0.22;;;;;;;23.23;57.64;101332.41;1968213;30;20548;-65
2022/08/14 02:12:25;;;;;;;0.20;0.20;;;;;;;23.21;57.64;101340.31;1971702;30;20598;-64
2022/08/14 02:13:30;;;;;;;0.30;0.30;;;;;;;23.17;57.99;101325.78;1972118;30;20472;-64
2022/08/14 02:14:37;;;;;;;0.30;0.30;;;;;;;23.15;58.36;101322.69;1971379;29;20436;-63
2022/08/14 02:15:39;;;;;;;0.30;0.30;;;;;;;23.15;58.02;101322.69;1971674;30;20098;-64
2022/08/14 02:16:49;;;;;;;0.25;0.25;;;;;;;23.12;58.12;101318.00;1972812;29;20096;-63
2022/08/14 02:17:51;;;;;;;0.20;0.20;;;;;;;23.12;58.25;101312.50;1975980;29;20111;-64
2022/08/14 02:18:56;;;;;;;0.20;0.20;;;;;;;23.11;57.95;101314.47;1974942;30;20086;-64
2022/08/14 02:19:59;;;;;;;0.30;0.30;;;;;;;23.06;58.50;101303.91;1973359;29;20059;-63
2022/08/14 02:21:04;;;;;;;0.30;0.30;;;;;;;23.01;58.52;101306.31;1972102;29;20060;-64
2022/08/14 02:22:07;;;;;;;0.22;0.22;;;;;;;22.97;58.36;101311.09;1972165;30;20107;-63
2022/08/14 02:23:12;;;;;;;0.30;0.30;;;;;;;23.01;58.50;101311.84;1978243;30;20094;-63
2022/08/14 02:24:19;;;;;;;0.30;0.30;;;;;;;23.05;58.45;101307.06;1980415;29;20484;-64
2022/08/14 02:25:43;;;;;;;0.30;0.30;;;;;;;22.96;58.51;101310.31;1973928;29;20071;-63
2022/08/14 02:26:58;;;;;;;0.20;0.20;;;;;;;22.88;59.18;101308.09;1972352;30;20083;-63
2022/08/14 02:28:21;;;;;;;0.20;0.20;;;;;;;22.82;59.00;101310.50;1972338;30;20158;-63
2022/08/14 02:29:43;;;;;;;0.20;0.20;;;;;;;22.78;59.36;101303.47;1971974;29;20052;-63
2022/08/14 02:31:02;;;;;;;0.20;0.20;;;;;;;22.70;59.35;101307.50;1974639;29;20059;-63
2022/08/14 02:32:10;;;;;;;0.30;0.30;;;;;;;22.65;59.48;101305.19;1972415;30;20406;-64
2022/08/14 02:33:32;;;;;;;0.30;0.30;;;;;;;22.58;60.00;101302.56;1973250;30;20063;-63
2022/08/14 02:34:37;;;;;;;0.20;0.20;;;;;;;22.54;60.15;101302.59;1974573;29;20059;-64
2022/08/14 02:35:42;;;;;;;0.30;0.30;;;;;;;22.47;60.20;101293.59;1977437;30;20112;-64
2022/08/14 02:36:48;;;;;;;0.25;0.25;;;;;;;22.41;60.85;101295.22;1978401;29;20059;-65
2022/08/14 02:38:08;;;;;;;0.28;0.28;;;;;;;22.39;59.90;101300.38;1975732;29;20055;-64
2022/08/14 02:39:34;;;;;;;0.20;0.20;;;;;;;22.38;60.80;101301.53;1973733;29;20489;-63
2022/08/14 02:40:38;;;;;;;0.30;0.30;;;;;;;22.40;60.14;101301.91;1972412;30;20164;-64
2022/08/14 02:41:50;;;;;;;0.30;0.30;;;;;;;22.42;60.39;101300.31;1978611;29;20070;-63
2022/08/14 02:42:58;;;;;;;0.25;0.25;;;;;;;22.44;60.45;101297.94;1978270;29;20070;-64
2022/08/14 02:44:05;;;;;;;0.30;0.30;;;;;;;22.46;60.44;101311.28;1974078;30;20572;-64
2022/08/14 02:45:08;;;;;;;0.20;0.20;;;;;;;22.44;60.64;101292.44;1974035;29;20112;-64
2022/08/14 02:46:12;;;;;;;0.20;0.20;;;;;;;22.46;60.16;101295.56;1977539;30;20197;-64
2022/08/14 02:47:21;;;;;;;0.20;0.20;;;;;;;22.45;60.68;101295.97;1971960;30;20134;-65
2022/08/14 02:48:34;;;;;;;0.30;0.30;;;;;;;22.44;60.08;101291.69;1975583;29;20131;-64
2022/08/14 02:49:58;;;;;;;0.30;0.30;;;;;;;22.37;60.73;101288.97;1974787;30;20508;-65
2022/08/14 02:51:00;;;;;;;0.20;0.20;;;;;;;22.38;60.50;101287.78;1972132;30;20572;-64
2022/08/14 02:52:06;;;;;;;0.30;0.30;;;;;;;22.40;59.85;101288.16;1972789;29;20063;-64
2022/08/14 02:53:28;;;;;;;0.30;0.30;;;;;;;22.32;60.58;101286.69;1976542;29;20062;-65
2022/08/14 02:54:34;;;;;;;0.30;0.30;;;;;;;22.31;60.86;101291.38;1972376;30;20086;-64
2022/08/14 02:55:39;;;;;;;0.28;0.28;;;;;;;22.30;60.78;101284.34;1974614;30;20567;-64
2022/08/14 02:56:41;;;;;;;0.22;0.22;;;;;;;22.23;60.73;101285.19;1973526;30;20071;-64
2022/08/14 02:58:04;;;;;;;0.30;0.30;;;;;;;22.21;61.33;101284.81;1973671;29;20497;-64
2022/08/14 02:59:09;;;;;;;0.20;0.20;;;;;;;22.21;60.72;101284.81;1972465;30;20055;-65
2022/08/14 03:00:12;;;;;;;0.20;0.20;;;;;;;22.26;60.45;101280.06;1975524;29;20064;-64
2022/08/14 03:01:22;;;;;;;0.30;0.30;;;;;;;22.28;60.91;101280.44;1977139;30;20133;-64
2022/08/14 03:02:29;;;;;;;0.20;0.20;;;;;;;22.28;60.86;101291.44;1974427;29;20087;-64
2022/08/14 03:03:51;;;;;;;0.30;0.30;;;;;;;22.23;60.70;101280.88;1975100;29;20059;-64
2022/08/14 03:04:54;;;;;;;0.30;0.30;;;;;;;22.19;61.17;101273.44;1976164;30;20816;-66
2022/08/14 03:05:57;;;;;;;0.30;0.30;;;;;;;22.17;61.52;101281.31;1976390;29;20158;-64
2022/08/14 03:06:59;;;;;;;0.30;0.30;;;;;;;22.17;61.28;101278.56;1971632;30;20063;-64
2022/08/14 03:08:11;;;;;;;0.30;0.30;;;;;;;22.14;60.86;101279.38;1972288;30;20532;-64
2022/08/14 03:09:20;;;;;;;0.30;0.30;;;;;;;22.12;61.16;101278.22;1976646;29;20108;-64
2022/08/14 03:10:25;;;;;;;0.32;0.32;;;;;;;22.12;61.19;101273.50;1975673;29;20055;-65
2022/08/14 03:11:35;;;;;;;0.30;0.30;;;;;;;22.10;61.69;101275.88;1978148;30;20139;-64
2022/08/14 03:12:38;;;;;;;0.30;0.30;;;;;;;22.13;61.10;101275.09;1975756;29;20472;-64
2022/08/14 03:13:42;;;;;;;0.20;0.20;;;;;;;22.14;61.66;101271.13;1971590;30;20064;-64
2022/08/14 03:14:47;;;;;;;0.28;0.28;;;;;;;22.15;61.56;101280.94;1971627;30;20099;-64
2022/08/14 03:15:52;;;;;;;0.30;0.30;;;;;;;22.13;61.65;101266.84;1975360;29;20062;-64
2022/08/14 03:17:14;;;;;;;0.28;0.28;;;;;;;22.09;61.67;101268.81;1987923;24;20050;-64
2022/08/14 03:18:40;;;;;;;0.20;0.20;;;;;;;22.06;61.90;101266.91;1970416;30;20064;-64
2022/08/14 03:19:43;;;;;;;0.20;0.20;;;;;;;22.07;61.41;101271.19;1973366;29;20079;-63
2022/08/14 03:20:45;;;;;;;0.30;0.30;;;;;;;22.04;61.62;101263.75;1974451;30;20091;-63
2022/08/14 03:21:48;;;;;;;0.22;0.22;;;;;;;22.06;62.20;101271.59;1975287;29;20125;-63
2022/08/14 03:22:54;;;;;;;0.25;0.25;;;;;;;22.10;61.59;101266.88;1973620;30;20094;-64
2022/08/14 03:24:06;;;;;;;0.25;0.25;;;;;;;22.11;61.65;101266.47;1971781;30;20436;-64
2022/08/14 03:25:22;;;;;;;0.20;0.20;;;;;;;22.05;62.27;101268.09;1972809;29;20122;-64
2022/08/14 03:26:27;;;;;;;0.20;0.20;;;;;;;22.09;61.68;101252.31;1976679;30;20074;-64
2022/08/14 03:27:31;;;;;;;0.30;0.30;;;;;;;22.07;61.96;101262.94;1973992;29;20469;-63
2022/08/14 03:28:51;;;;;;;0.40;0.40;;;;;;;22.06;62.29;101264.16;1968450;30;20063;-64
2022/08/14 03:29:53;;;;;;;0.20;0.20;;;;;;;22.05;62.17;101267.31;1969910;30;20612;-64
2022/08/14 03:30:57;;;;;;;0.30;0.30;;;;;;;22.04;62.18;101258.25;1977323;30;20089;-64
2022/08/14 03:32:00;;;;;;;0.30;0.30;;;;;;;22.03;62.66;101258.66;1974314;30;20059;-64
2022/08/14 03:33:06;;;;;;;0.30;0.30;;;;;;;22.02;62.12;101246.88;1977762;29;20066;-63
2022/08/14 03:34:10;;;;;;;0.30;0.30;;;;;;;22.04;61.91;101252.75;1972246;29;20094;-64
2022/08/14 03:35:33;;;;;;;0.30;0.30;;;;;;;21.99;62.08;101247.69;1971808;30;20059;-63
2022/08/14 03:36:57;;;;;;;0.20;0.20;;;;;;;21.93;62.64;101243.84;1972071;30;20142;-64
2022/08/14 03:38:19;;;;;;;0.30;0.30;;;;;;;21.92;62.42;101247.78;1971660;30;20170;-63
2022/08/14 03:39:41;;;;;;;0.28;0.28;;;;;;;21.89;62.98;101247.81;1972280;29;20116;-64
2022/08/14 03:40:46;;;;;;;0.30;0.30;;;;;;;21.93;62.59;101249.34;1975244;30;20065;-64
2022/08/14 03:41:52;;;;;;;0.30;0.30;;;;;;;21.93;62.46;101252.09;1975547;30;20139;-64
2022/08/14 03:42:54;;;;;;;0.22;0.22;;;;;;;21.86;63.15;101252.16;1977019;30;20138;-64
2022/08/14 03:44:00;;;;;;;0.30;0.30;;;;;;;21.84;63.26;101254.53;1966231;30;20544;-65
2022/08/14 03:45:23;;;;;;;0.40;0.40;;;;;;;21.79;62.98;101243.97;1967179;30;20083;-67
2022/08/14 03:46:41;;;;;;;0.30;0.30;;;;;;;21.81;62.78;101243.56;1971625;30;20059;-63
2022/08/14 03:47:58;;;;;;;0.20;0.20;;;;;;;21.81;63.34;101246.31;1971670;30;20428;-64
2022/08/14 03:49:04;;;;;;;0.30;0.30;;;;;;;21.82;62.83;101239.63;1976137;29;20065;-64
2022/08/14 03:50:08;;;;;;;0.30;0.30;;;;;;;21.80;63.18;101242.78;1972197;30;20536;-63
2022/08/14 03:51:14;;;;;;;0.30;0.30;;;;;;;21.82;63.06;101237.66;1971293;29;20059;-63
2022/08/14 03:52:17;;;;;;;0.20;0.20;;;;;;;21.84;63.15;101234.50;1965685;30;20056;-64
2022/08/14 03:53:42;;;;;;;0.20;0.20;;;;;;;21.81;63.15;101241.59;1966616;30;20067;-64
2022/08/14 03:54:45;;;;;;;0.20;0.20;;;;;;;21.79;63.19;101232.97;1975157;29;20582;-64
2022/08/14 03:55:57;;;;;;;0.22;0.22;;;;;;;21.78;62.70;101225.94;1972773;30;20068;-64
2022/08/14 03:57:01;;;;;;;0.20;0.20;;;;;;;21.77;63.23;101232.59;1971633;30;20059;-64
2022/08/14 03:58:06;;;;;;;0.30;0.30;;;;;;;21.78;63.45;101236.94;1977112;30;20549;-63
2022/08/14 03:59:10;;;;;;;0.20;0.20;;;;;;;21.73;63.42;101234.56;1975260;30;20059;-64
2022/08/14 04:00:20;;;;;;;0.30;0.30;;;;;;;21.69;63.46;101239.31;1975497;30;20063;-62
2022/08/14 04:01:42;;;;;;;0.30;0.30;;;;;;;21.68;63.60;101231.47;1971932;30;20055;-63
2022/08/14 04:03:00;;;;;;;0.30;0.30;;;;;;;21.71;63.23;101236.16;1972715;30;20051;-64
2022/08/14 04:04:04;;;;;;;0.30;0.30;;;;;;;21.73;63.24;101236.53;1971573;30;20070;-64
2022/08/14 04:05:10;;;;;;;0.32;0.32;;;;;;;21.75;63.53;101226.75;1971525;30;20496;-64
2022/08/14 04:06:19;;;;;;;0.30;0.30;;;;;;;21.76;63.44;101233.78;1972106;29;20677;-63
2022/08/14 04:07:23;;;;;;;0.40;0.40;;;;;;;21.78;63.30;101236.94;1974037;30;20110;-63
2022/08/14 04:08:25;;;;;;;0.30;0.30;;;;;;;21.76;63.09;101231.03;1972249;30;20428;-64
2022/08/14 04:09:33;;;;;;;0.30;0.30;;;;;;;21.77;63.64;101224.34;1967995;30;20091;-63
2022/08/14 04:10:37;;;;;;;0.30;0.30;;;;;;;21.79;62.79;101227.47;1972183;29;20071;-63
2022/08/14 04:11:41;;;;;;;0.30;0.30;;;;;;;21.78;62.86;101225.94;1971484;30;20062;-64
2022/08/14 04:12:44;;;;;;;0.40;0.40;;;;;;;21.79;62.97;101229.44;1972503;29;20095;-64
2022/08/14 04:13:54;;;;;;;0.40;0.40;;;;;;;21.74;63.41;101227.88;1971969;30;20087;-63
2022/08/14 04:14:56;;;;;;;0.30;0.30;;;;;;;21.76;63.19;101231.03;1971929;30;20063;-64
2022/08/14 04:16:00;;;;;;;0.30;0.30;;;;;;;21.73;63.81;101223.59;1972226;30;20101;-63
2022/08/14 04:17:06;;;;;;;0.30;0.30;;;;;;;21.73;63.48;101229.09;1972063;29;20080;-64
2022/08/14 04:18:13;;;;;;;0.30;0.30;;;;;;;21.70;63.57;101229.91;1971503;30;20142;-63
2022/08/14 04:19:22;;;;;;;0.30;0.30;;;;;;;21.71;63.31;101230.66;1975209;30;20055;-63
2022/08/14 04:20:30;;;;;;;0.30;0.30;;;;;;;21.66;63.64;101228.38;1972757;30;20135;-64
2022/08/14 04:21:52;;;;;;;0.30;0.30;;;;;;;21.63;63.60;101221.69;1971910;29;20052;-64
2022/08/14 04:23:06;;;;;;;0.30;0.30;;;;;;;21.63;63.48;101232.69;1971919;30;20542;-64
2022/08/14 04:24:25;;;;;;;0.30;0.30;;;;;;;21.57;64.46;101220.59;1974776;29;20130;-64
2022/08/14 04:25:27;;;;;;;0.40;0.40;;;;;;;21.59;64.30;101220.19;1977290;29;20059;-65
2022/08/14 04:26:33;;;;;;;0.40;0.40;;;;;;;21.61;63.76;101226.06;1971723;30;20146;-64
2022/08/14 04:27:46;;;;;;;0.40;0.40;;;;;;;21.61;64.26;101221.31;1971949;30;20501;-64
2022/08/14 04:29:06;;;;;;;0.40;0.40;;;;;;;21.60;63.88;101221.72;1978198;30;20177;-64
2022/08/14 04:30:18;;;;;;;0.40;0.40;;;;;;;21.60;63.90;101211.53;1975967;30;20055;-64
2022/08/14 04:31:33;;;;;;;0.30;0.30;;;;;;;21.56;64.21;101221.78;1973760;30;20132;-64
2022/08/14 04:33:00;;;;;;;0.40;0.40;;;;;;;21.57;64.45;101217.84;1972277;30;20072;-64
2022/08/14 04:34:17;;;;;;;0.40;0.40;;;;;;;21.52;64.54;101218.25;1971707;30;20063;-64
2022/08/14 04:35:29;;;;;;;0.40;0.40;;;;;;;21.51;64.69;101215.91;1971973;30;20064;-64
2022/08/14 04:43:54;;;;;;;0.30;0.30;;;;;;;21.45;64.15;101223.03;1965304;30;20052;-63
2022/08/14 04:44:57;;;;;;;0.40;0.40;;;;;;;21.46;64.83;101217.16;1971933;30;20063;-63
2022/08/14 04:46:02;;;;;;;0.40;0.40;;;;;;;21.49;64.73;101224.56;1971937;30;20134;-63
2022/08/14 04:48:32;;;;;;;0.40;0.40;;;;;;;21.45;64.62;101212.84;1975535;30;20166;-63
2022/08/14 04:49:45;;;;;;;0.40;0.40;;;;;;;21.48;64.27;101211.25;1975320;30;20109;-63
2022/08/14 04:50:59;;;;;;;0.40;0.40;;;;;;;21.49;64.08;101224.56;1974425;30;20137;-63
2022/08/14 04:52:03;;;;;;;0.40;0.40;;;;;;;21.52;64.61;101223.75;1977046;29;20130;-63
2022/08/14 04:53:27;;;;;;;0.30;0.30;;;;;;;21.52;64.17;101226.50;1971814;29;20109;-63
2022/08/14 04:54:37;;;;;;;0.35;0.35;;;;;;;21.52;64.13;101223.75;1971964;30;20469;-63
2022/08/14 04:55:41;;;;;;;0.40;0.40;;;;;;;21.54;64.50;101226.88;1977973;30;20055;-62
2022/08/14 04:56:44;;;;;;;0.40;0.40;;;;;;;21.55;64.12;101222.94;1974666;30;20380;-63
2022/08/14 04:57:47;;;;;;;0.40;0.40;;;;;;;21.55;64.28;101217.44;1975121;30;20059;-63
2022/08/14 04:58:54;;;;;;;0.40;0.40;;;;;;;21.58;64.17;101222.13;1968507;30;20064;-63
2022/08/14 04:59:57;;;;;;;0.47;0.47;;;;;;;21.63;63.64;101224.44;1967148;30;20144;-63
2022/08/14 05:01:05;;;;;;;0.40;0.40;;;;;;;21.67;63.51;101224.44;1980255;30;20059;-63
2022/08/14 05:02:23;;;;;;;0.50;0.50;;;;;;;21.65;63.80;101222.09;1980112;30;20155;-63
2022/08/14 05:03:28;;;;;;;0.50;0.50;;;;;;;21.68;64.16;101215.78;1977421;29;20087;-63
2022/08/14 05:04:31;;;;;;;0.40;0.40;;;;;;;21.67;63.98;101216.97;1976917;29;20113;-63
2022/08/14 05:05:34;;;;;;;0.40;0.40;;;;;;;21.71;64.06;101225.94;1972942;29;20071;-63
2022/08/14 05:06:37;;;;;;;0.40;0.40;;;;;;;21.71;63.92;101214.16;1977154;29;20086;-63
2022/08/14 05:07:42;;;;;;;0.40;0.40;;;;;;;21.72;63.99;101215.75;1974934;29;20130;-63
2022/08/14 05:09:02;;;;;;;0.40;0.40;;;;;;;21.69;63.62;101211.81;1971718;30;20474;-63
2022/08/14 05:10:07;;;;;;;0.40;0.40;;;;;;;21.72;64.15;101207.50;1971426;30;20531;-63
2022/08/14 05:11:14;;;;;;;0.40;0.40;;;;;;;21.69;63.81;101206.34;1972944;30;20066;-63
2022/08/14 05:12:17;;;;;;;0.50;0.50;;;;;;;21.74;63.62;101211.38;1972402;30;20528;-64
2022/08/14 05:13:39;;;;;;;0.40;0.40;;;;;;;21.70;63.89;101210.66;1972514;30;20067;-63
2022/08/14 05:15:03;;;;;;;0.40;0.40;;;;;;;21.74;63.69;101207.88;1978491;30;20121;-63
2022/08/14 05:16:06;;;;;;;0.40;0.40;;;;;;;21.76;64.04;101211.00;1975129;29;20135;-63
2022/08/14 05:17:12;;;;;;;0.40;0.40;;;;;;;21.77;64.15;101205.09;1973168;30;20056;-63
2022/08/14 05:18:15;;;;;;;0.40;0.40;;;;;;;21.79;64.04;101216.50;1973865;30;20134;-62
2022/08/14 05:19:38;;;;;;;0.40;0.40;;;;;;;21.77;63.76;101209.84;1973166;29;20120;-63
2022/08/14 05:21:03;;;;;;;0.40;0.40;;;;;;;21.79;64.06;101221.19;1974307;30;20059;-63
2022/08/14 05:22:25;;;;;;;0.40;0.40;;;;;;;21.80;64.13;101215.28;1972810;30;20064;-63
2022/08/14 05:23:33;;;;;;;0.40;0.40;;;;;;;21.88;63.67;101216.03;1976205;30;20086;-63
2022/08/14 05:24:37;;;;;;;0.47;0.47;;;;;;;21.89;63.30;101215.63;1977315;29;20059;-64
2022/08/14 05:25:41;;;;;;;0.40;0.40;;;;;;;22.00;63.35;101216.28;1976725;29;20143;-64
2022/08/14 05:26:45;;;;;;;0.40;0.40;;;;;;;22.08;63.10;101220.53;1973483;30;20063;-64
2022/08/14 05:27:49;;;;;;;0.40;0.40;;;;;;;22.08;63.39;101217.78;1973117;30;20064;-64
2022/08/14 05:28:55;;;;;;;0.30;0.30;;;;;;;22.14;63.32;101220.84;1972656;30;20055;-64
2022/08/14 05:30:00;;;;;;;0.40;0.40;;;;;;;22.17;62.78;101215.31;1973992;30;20425;-64
2022/08/14 05:31:06;;;;;;;0.40;0.40;;;;;;;22.25;62.98;101215.25;1978019;30;20062;-64
2022/08/14 05:32:09;;;;;;;0.40;0.40;;;;;;;22.31;63.17;101216.34;1977342;30;20392;-64
2022/08/14 05:33:11;;;;;;;0.40;0.40;;;;;;;22.32;62.41;101210.44;1965576;30;20096;-64